createdAt,value
2022-09-09T00:04:35.775Z,78.90
2022-09-09T00:12:47.642Z,78.80
2022-09-09T00:21:01.638Z,78.90
2022-09-09T00:29:18.083Z,79.00
2022-09-09T00:37:29.392Z,78.90
2022-09-09T00:45:56.403Z,79.20
2022-09-09T00:54:36.748Z,79.40
2022-09-09T01:02:58.177Z,79.40
2022-09-09T01:11:04.127Z,79.60
2022-09-09T01:19:27.304Z,80.20
2022-09-09T01:27:38.537Z,80.60
2022-09-09T01:35:52.715Z,80.90
2022-09-09T01:44:02.665Z,80.90
2022-09-09T01:52:10.050Z,81.60
2022-09-09T02:00:20.902Z,81.40
2022-09-09T02:08:44.395Z,81.50
2022-09-09T02:17:00.321Z,81.20
2022-09-09T02:25:19.067Z,79.90
2022-09-09T02:33:31.550Z,79.30
2022-09-09T02:41:40.683Z,79.60
2022-09-09T02:50:00.513Z,78.70
2022-09-09T02:58:10.622Z,78.10
2022-09-09T03:06:18.551Z,77.60
2022-09-09T03:14:29.422Z,77.70
2022-09-09T03:22:37.538Z,77.20
2022-09-09T03:30:43.006Z,77.30
2022-09-09T03:38:51.872Z,77.40
2022-09-09T03:46:57.686Z,77.40
2022-09-09T03:55:05.778Z,77.10
2022-09-09T04:03:11.260Z,77.80
2022-09-09T04:11:19.577Z,78.60
2022-09-09T04:19:26.757Z,78.90
2022-09-09T04:27:35.323Z,79.80
2022-09-09T04:35:41.899Z,80.70
2022-09-09T04:43:49.961Z,81.00
2022-09-09T04:51:56.734Z,81.30
2022-09-09T05:00:05.333Z,81.80
2022-09-09T05:08:14.609Z,82.50
2022-09-09T05:16:24.060Z,83.40
2022-09-09T05:24:29.587Z,83.50
2022-09-09T05:32:39.809Z,83.10
2022-09-09T05:40:53.287Z,82.70
2022-09-09T05:49:01.426Z,82.40
2022-09-09T05:57:10.103Z,82.00
2022-09-09T06:05:18.212Z,81.70
2022-09-09T06:13:25.217Z,81.70
2022-09-09T06:21:34.580Z,83.30
2022-09-09T06:29:41.402Z,84.50
2022-09-09T06:37:53.487Z,83.80
2022-09-09T06:46:00.561Z,82.00
2022-09-09T06:54:08.666Z,81.20
2022-09-09T07:02:14.447Z,81.10
2022-09-09T07:10:22.528Z,81.40
2022-09-09T07:18:29.103Z,80.90
2022-09-09T07:26:37.846Z,80.60
2022-09-09T07:34:43.876Z,80.20
2022-09-09T07:42:52.172Z,80.50
2022-09-09T07:51:07.047Z,80.20
2022-09-09T07:59:15.206Z,80.00
2022-09-09T08:07:22.629Z,79.30
2022-09-09T08:15:35.784Z,78.00
2022-09-09T08:23:43.314Z,78.90
2022-09-09T08:31:53.966Z,80.00
2022-09-09T08:39:59.399Z,79.30
2022-09-09T08:48:22.065Z,84.00
2022-09-09T08:56:30.819Z,84.60
2022-09-09T09:04:49.435Z,85.00
2022-09-09T09:12:55.944Z,84.20
2022-09-09T09:21:12.240Z,85.30
2022-09-09T09:29:23.835Z,86.70
2022-09-09T09:37:36.505Z,84.90
2022-09-09T09:46:06.891Z,84.90
2022-09-09T09:54:22.638Z,84.20
2022-09-09T10:02:44.349Z,83.80
2022-09-09T10:11:18.204Z,83.60
2022-09-09T10:19:32.811Z,83.70
2022-09-09T10:27:56.897Z,84.00
2022-09-09T10:36:11.495Z,83.80
2022-09-09T10:44:38.327Z,84.10
2022-09-09T10:52:54.663Z,84.90
2022-09-09T11:01:08.923Z,85.60
2022-09-09T11:09:19.796Z,84.80
2022-09-09T11:17:34.865Z,85.60
2022-09-09T11:25:44.311Z,85.70
2022-09-09T11:34:22.603Z,84.80
2022-09-09T11:42:28.717Z,85.00
2022-09-09T11:50:41.653Z,83.90
2022-09-09T11:58:57.590Z,82.60
2022-09-09T12:07:26.479Z,83.30
2022-09-09T12:15:32.850Z,85.40
2022-09-09T12:23:49.366Z,86.40
2022-09-09T12:32:01.622Z,86.10
2022-09-09T12:40:22.399Z,86.70
2022-09-09T12:48:34.120Z,87.90
2022-09-09T12:56:42.137Z,88.50
2022-09-09T13:04:48.155Z,87.50
2022-09-09T13:12:56.313Z,87.00
2022-09-09T13:21:01.783Z,85.00
2022-09-09T13:29:24.263Z,86.70
2022-09-09T13:37:35.651Z,86.30
2022-09-09T13:45:43.688Z,86.90
2022-09-09T13:53:50.358Z,87.30
2022-09-09T14:01:58.460Z,85.60
2022-09-09T14:10:03.803Z,86.50
2022-09-09T14:18:15.614Z,85.60
2022-09-09T14:26:22.170Z,85.70
2022-09-09T14:34:30.171Z,85.20
2022-09-09T14:42:35.501Z,86.40
2022-09-09T14:50:44.755Z,87.90
2022-09-09T14:58:50.259Z,89.10
2022-09-09T15:06:58.110Z,86.30
2022-09-09T15:15:03.524Z,86.20
2022-09-09T15:23:12.099Z,85.00
2022-09-09T15:31:19.084Z,85.00
2022-09-09T15:39:28.866Z,85.00
2022-09-09T15:47:34.307Z,84.80
2022-09-09T15:55:42.281Z,85.00
2022-09-09T16:03:48.226Z,85.60
2022-09-09T16:11:57.575Z,85.40
2022-09-09T16:20:03.192Z,85.30
2022-09-09T16:28:11.103Z,85.80
2022-09-09T16:36:18.374Z,85.80
2022-09-09T16:44:27.281Z,86.80
2022-09-09T16:52:32.585Z,87.60
2022-09-09T17:00:40.735Z,87.80
2022-09-09T17:08:46.925Z,88.00
2022-09-09T17:16:55.114Z,89.10
2022-09-09T17:25:00.374Z,89.50
2022-09-09T17:33:08.514Z,90.80
2022-09-09T17:41:16.451Z,91.00
2022-09-09T17:49:24.415Z,91.10
2022-09-09T17:57:29.768Z,90.70
2022-09-09T18:05:38.600Z,90.80
2022-09-09T18:13:44.195Z,90.90
2022-09-09T18:21:52.885Z,91.00
2022-09-09T18:29:58.241Z,91.00
2022-09-09T18:38:06.271Z,91.30
2022-09-09T18:46:12.874Z,91.50
2022-09-09T18:54:26.119Z,91.90
2022-09-09T19:02:31.458Z,91.80
2022-09-09T19:10:42.158Z,91.70
2022-09-09T19:18:48.472Z,92.00
2022-09-09T19:27:00.142Z,91.80
2022-09-09T19:35:06.038Z,91.80
2022-09-09T19:43:14.082Z,92.40
2022-09-09T19:51:21.854Z,91.90
2022-09-09T19:59:30.478Z,92.10
2022-09-09T20:07:35.807Z,92.20
2022-09-09T20:15:43.696Z,92.20
2022-09-09T20:23:49.562Z,92.20
2022-09-09T20:31:57.565Z,92.30
2022-09-09T20:40:03.359Z,92.30
2022-09-09T20:48:11.336Z,92.30
2022-09-09T20:56:18.277Z,92.30
2022-09-09T21:04:26.595Z,92.50
2022-09-09T21:12:31.879Z,92.50
2022-09-09T21:20:39.831Z,92.70
2022-09-09T21:28:45.927Z,92.90
2022-09-09T21:36:53.948Z,93.00
2022-09-09T21:44:59.282Z,93.00
2022-09-09T21:53:11.195Z,93.00
2022-09-09T22:01:18.649Z,92.80
2022-09-09T22:09:26.785Z,92.50
2022-09-09T22:17:32.121Z,92.50
2022-09-09T22:25:41.355Z,92.50
2022-09-09T22:33:46.680Z,92.60
2022-09-09T22:41:54.583Z,92.60
2022-09-09T22:49:59.935Z,92.70
2022-09-09T22:58:07.970Z,92.80
2022-09-09T23:06:15.668Z,92.90
2022-09-09T23:14:23.566Z,93.00
2022-09-09T23:22:29.891Z,93.10
2022-09-09T23:30:37.820Z,93.20
2022-09-09T23:38:44.107Z,93.40
2022-09-09T23:46:52.008Z,93.60
2022-09-09T23:54:57.346Z,93.50
